createdAt,value
2018-03-01T00:00:27.785Z,69.23
2018-03-01T00:01:33.845Z,69.23
2018-03-01T00:02:44.106Z,69.22
2018-03-01T00:03:49.829Z,69.31
2018-03-01T00:04:55.998Z,69.18
2018-03-01T00:06:02.199Z,69.01
2018-03-01T00:07:11.841Z,69.49
2018-03-01T00:08:17.769Z,69.89
2018-03-01T00:09:23.935Z,69.80
2018-03-01T00:10:30.136Z,70.19
2018-03-01T00:11:36.348Z,70.11
2018-03-01T00:12:42.556Z,70.32
2018-03-01T00:13:48.676Z,70.26
2018-03-01T00:14:54.810Z,70.45
2018-03-01T00:16:00.994Z,70.72
2018-03-01T00:17:07.152Z,70.64
2018-03-01T00:18:13.297Z,70.54
2018-03-01T00:19:19.474Z,70.27
2018-03-01T00:20:25.640Z,70.41
2018-03-01T00:21:31.853Z,70.48
2018-03-01T00:22:37.381Z,70.37
2018-03-01T00:23:43.535Z,70.55
2018-03-01T00:24:49.707Z,70.71
2018-03-01T00:25:55.916Z,70.36
2018-03-01T00:27:02.108Z,70.57
2018-03-01T00:28:08.289Z,71.07
2018-03-01T00:29:18.086Z,70.99
2018-03-01T00:30:24.426Z,70.82
2018-03-01T00:31:30.581Z,70.62
2018-03-01T00:32:36.767Z,70.75
2018-03-01T00:33:42.905Z,70.58
2018-03-01T00:34:49.056Z,70.66
2018-03-01T00:35:55.235Z,70.61
2018-03-01T00:37:01.361Z,71.02
2018-03-01T00:38:07.281Z,70.97
2018-03-01T00:39:13.481Z,71.15
2018-03-01T00:40:19.006Z,71.15
2018-03-01T00:41:25.782Z,70.97
2018-03-01T00:42:32.004Z,70.57
2018-03-01T00:43:38.132Z,70.61
2018-03-01T00:44:51.614Z,70.51
2018-03-01T00:45:57.915Z,70.72
2018-03-01T00:47:04.123Z,70.58
2018-03-01T00:48:10.276Z,70.69
2018-03-01T00:49:16.455Z,70.78
2018-03-01T00:50:22.645Z,70.77
2018-03-01T00:51:28.853Z,70.94
2018-03-01T00:52:35.183Z,70.82
2018-03-01T00:53:41.408Z,70.74
2018-03-01T00:54:47.781Z,70.83
2018-03-01T00:55:54.054Z,71.07
2018-03-01T00:57:00.730Z,71.09
2018-03-01T00:58:08.954Z,71.05
2018-03-01T00:59:15.105Z,70.83
2018-03-01T01:00:22.497Z,71.01
2018-03-01T01:01:28.366Z,71.15
2018-03-01T01:02:34.583Z,71.04
2018-03-01T01:03:40.793Z,70.98
2018-03-01T01:04:47.064Z,71.13
2018-03-01T01:05:53.339Z,71.04
2018-03-01T01:07:05.121Z,70.83
2018-03-01T01:08:11.332Z,71.09
2018-03-01T01:09:18.458Z,71.40
2018-03-01T01:10:24.615Z,71.56
2018-03-01T01:11:30.809Z,71.35
2018-03-01T01:12:36.991Z,71.41
2018-03-01T01:13:43.171Z,71.66
2018-03-01T01:14:49.321Z,71.78
2018-03-01T01:15:55.538Z,71.83
2018-03-01T01:17:01.480Z,71.91
2018-03-01T01:18:07.676Z,71.92
2018-03-01T01:19:13.852Z,71.90
2018-03-01T01:20:20.011Z,71.85
2018-03-01T01:21:26.258Z,71.55
2018-03-01T01:22:32.404Z,71.38
2018-03-01T01:23:38.600Z,71.63
2018-03-01T01:24:44.837Z,71.90
2018-03-01T01:25:51.194Z,72.02
2018-03-01T01:27:00.526Z,72.24
2018-03-01T01:28:08.491Z,72.66
2018-03-01T01:29:14.677Z,72.48
2018-03-01T01:30:21.744Z,72.42
2018-03-01T01:31:27.921Z,72.35
2018-03-01T01:32:34.260Z,72.37
2018-03-01T01:33:40.445Z,72.60
2018-03-01T01:34:46.631Z,72.53
2018-03-01T01:35:52.855Z,72.52
2018-03-01T01:36:59.092Z,72.34
2018-03-01T01:38:05.342Z,72.07
2018-03-01T01:39:11.468Z,72.12
2018-03-01T01:40:17.650Z,72.28
2018-03-01T01:41:23.838Z,72.13
2018-03-01T01:42:30.522Z,72.17
2018-03-01T01:43:36.727Z,72.35
2018-03-01T01:44:42.898Z,72.46
2018-03-01T01:45:49.149Z,72.34
2018-03-01T01:46:55.402Z,72.63
2018-03-01T01:48:01.561Z,72.85
2018-03-01T01:49:07.759Z,73.04
2018-03-01T01:50:13.950Z,72.96
2018-03-01T01:51:20.215Z,72.92
2018-03-01T01:52:26.484Z,72.99
2018-03-01T01:53:32.837Z,72.90
2018-03-01T01:54:39.051Z,72.99
2018-03-01T01:55:45.218Z,73.20
2018-03-01T01:56:54.437Z,73.00
2018-03-01T01:58:00.660Z,73.02
2018-03-01T01:59:06.854Z,73.11
2018-03-01T02:00:13.047Z,73.39
2018-03-01T02:01:19.005Z,73.49
2018-03-01T02:02:24.967Z,73.37
2018-03-01T02:03:31.156Z,73.18
2018-03-01T02:04:37.355Z,73.35
2018-03-01T02:05:43.511Z,73.20
2018-03-01T02:06:49.668Z,73.32
2018-03-01T02:07:55.868Z,73.50
2018-03-01T02:09:01.781Z,73.52
2018-03-01T02:10:07.756Z,73.59
2018-03-01T02:11:13.953Z,73.40
2018-03-01T02:12:20.206Z,73.26
2018-03-01T02:13:26.447Z,73.18
2018-03-01T02:14:33.046Z,73.28
2018-03-01T02:15:39.581Z,73.28
2018-03-01T02:16:45.861Z,73.35
2018-03-01T02:17:52.108Z,73.33
2018-03-01T02:18:58.281Z,73.42
2018-03-01T02:20:04.483Z,73.38
2018-03-01T02:21:10.005Z,73.28
2018-03-01T02:22:16.368Z,73.20
2018-03-01T02:23:22.240Z,73.04
2018-03-01T02:24:28.367Z,73.31
2018-03-01T02:25:40.299Z,73.80
2018-03-01T02:26:46.591Z,73.58
2018-03-01T02:27:52.754Z,73.56
2018-03-01T02:28:58.887Z,73.78
2018-03-01T02:30:05.410Z,73.97
2018-03-01T02:31:11.339Z,74.09
2018-03-01T02:32:17.546Z,74.20
2018-03-01T02:33:23.430Z,74.25
2018-03-01T02:34:29.287Z,74.28
2018-03-01T02:35:35.451Z,74.21
2018-03-01T02:36:41.609Z,74.09
2018-03-01T02:37:47.933Z,74.12
2018-03-01T02:38:54.082Z,73.91
2018-03-01T02:40:00.285Z,74.21
2018-03-01T02:41:06.469Z,74.28
2018-03-01T02:42:13.061Z,74.23
2018-03-01T02:43:19.307Z,74.08
2018-03-01T02:44:25.462Z,73.97
2018-03-01T02:45:31.612Z,73.83
2018-03-01T02:46:37.800Z,73.96
2018-03-01T02:47:44.044Z,74.25
2018-03-01T02:48:50.238Z,74.55
2018-03-01T02:49:57.733Z,74.91
2018-03-01T02:51:04.039Z,74.78
2018-03-01T02:52:10.309Z,74.65
2018-03-01T02:53:16.506Z,74.74
2018-03-01T02:54:27.728Z,74.81
2018-03-01T02:55:33.898Z,74.94
2018-03-01T02:56:40.717Z,75.07
2018-03-01T02:57:46.896Z,75.33
2018-03-01T02:58:53.335Z,75.53
2018-03-01T02:59:59.547Z,75.47
2018-03-01T03:01:05.916Z,75.35
2018-03-01T03:02:12.059Z,75.30
2018-03-01T03:03:18.265Z,75.02
2018-03-01T03:04:24.515Z,75.01
2018-03-01T03:05:30.715Z,75.05
2018-03-01T03:06:36.852Z,75.18
2018-03-01T03:07:43.597Z,75.34
2018-03-01T03:08:50.392Z,75.26
2018-03-01T03:09:56.641Z,75.20
2018-03-01T03:11:02.858Z,74.95
2018-03-01T03:12:09.064Z,74.77
2018-03-01T03:13:15.244Z,74.86
2018-03-01T03:14:21.426Z,74.67
2018-03-01T03:15:27.661Z,74.69
2018-03-01T03:16:33.974Z,74.82
2018-03-01T03:17:40.148Z,74.87
2018-03-01T03:18:47.200Z,75.09
2018-03-01T03:19:53.383Z,75.10
2018-03-01T03:20:59.627Z,75.58
2018-03-01T03:22:05.814Z,75.67
2018-03-01T03:23:12.019Z,75.68
2018-03-01T03:24:18.172Z,75.94
2018-03-01T03:25:24.364Z,75.85
2018-03-01T03:26:30.547Z,75.68
2018-03-01T03:27:36.765Z,75.75
2018-03-01T03:28:42.997Z,75.73
2018-03-01T03:29:49.112Z,75.64
2018-03-01T03:30:55.350Z,75.47
2018-03-01T03:32:01.661Z,75.46
2018-03-01T03:33:07.916Z,75.47
2018-03-01T03:34:14.089Z,75.56
2018-03-01T03:35:20.210Z,75.42
2018-03-01T03:36:26.439Z,75.36
2018-03-01T03:37:34.589Z,75.42
2018-03-01T03:38:40.832Z,75.16
2018-03-01T03:39:46.972Z,75.03
2018-03-01T03:40:53.152Z,75.35
2018-03-01T03:41:59.315Z,75.31
2018-03-01T03:43:05.525Z,75.08
2018-03-01T03:44:11.666Z,75.03
2018-03-01T03:45:17.813Z,75.34
2018-03-01T03:46:24.167Z,75.46
2018-03-01T03:47:30.513Z,75.37
2018-03-01T03:48:36.708Z,75.47
2018-03-01T03:49:42.876Z,75.39
2018-03-01T03:50:49.093Z,75.31
2018-03-01T03:51:55.285Z,75.38
2018-03-01T03:53:01.537Z,75.74
2018-03-01T03:54:07.480Z,75.69
2018-03-01T03:55:13.664Z,75.81
2018-03-01T03:56:19.907Z,76.03
2018-03-01T03:57:26.146Z,76.08
2018-03-01T03:58:32.336Z,75.94
2018-03-01T03:59:39.042Z,75.71
2018-03-01T04:00:45.197Z,76.00
2018-03-01T04:01:51.419Z,75.93
2018-03-01T04:02:57.623Z,75.95
2018-03-01T04:04:03.763Z,76.34
2018-03-01T04:05:10.224Z,76.67
2018-03-01T04:06:16.405Z,76.49
2018-03-01T04:07:22.559Z,76.39
2018-03-01T04:08:28.755Z,76.15
2018-03-01T04:09:34.949Z,76.05
2018-03-01T04:10:41.119Z,76.48
2018-03-01T04:11:47.437Z,76.63
2018-03-01T04:12:53.658Z,76.99
2018-03-01T04:13:59.860Z,77.01
2018-03-01T04:15:06.026Z,77.00
2018-03-01T04:16:12.221Z,77.05
2018-03-01T04:17:18.118Z,76.94
2018-03-01T04:18:24.282Z,77.07
2018-03-01T04:19:30.336Z,77.38
2018-03-01T04:20:36.536Z,77.29
2018-03-01T04:21:42.713Z,77.29
2018-03-01T04:22:48.923Z,76.98
2018-03-01T04:23:55.139Z,77.19
2018-03-01T04:25:04.006Z,77.46
2018-03-01T04:26:10.296Z,77.52
2018-03-01T04:27:16.554Z,77.42
2018-03-01T04:28:22.733Z,77.35
2018-03-01T04:29:28.956Z,77.60
2018-03-01T04:30:35.161Z,77.61
2018-03-01T04:31:41.381Z,77.45
2018-03-01T04:32:47.573Z,77.44
2018-03-01T04:33:53.730Z,77.58
2018-03-01T04:35:00.227Z,77.50
2018-03-01T04:36:06.425Z,77.53
2018-03-01T04:37:13.536Z,77.35
2018-03-01T04:38:20.135Z,77.33
2018-03-01T04:39:27.330Z,77.42
2018-03-01T04:40:33.547Z,77.48
2018-03-01T04:41:39.780Z,77.42
2018-03-01T04:42:46.081Z,77.47
2018-03-01T04:43:52.312Z,77.69
2018-03-01T04:44:58.499Z,77.52
2018-03-01T04:46:04.677Z,77.61
2018-03-01T04:47:10.687Z,77.44
2018-03-01T04:48:16.913Z,77.54
2018-03-01T04:49:23.186Z,77.37
2018-03-01T04:50:29.393Z,77.27
2018-03-01T04:51:35.559Z,77.14
2018-03-01T04:52:41.831Z,77.40
2018-03-01T04:53:48.077Z,77.69
2018-03-01T04:54:54.283Z,77.81
2018-03-01T04:56:00.565Z,77.85
2018-03-01T04:57:08.770Z,77.99
2018-03-01T04:58:15.057Z,78.31
2018-03-01T04:59:21.276Z,78.37
2018-03-01T05:00:27.431Z,78.42
2018-03-01T05:01:33.629Z,78.17
2018-03-01T05:02:40.113Z,78.19
2018-03-01T05:03:46.593Z,78.17
2018-03-01T05:04:53.672Z,78.16
2018-03-01T05:05:59.904Z,78.33
2018-03-01T05:07:06.140Z,78.42
2018-03-01T05:08:12.388Z,78.31
2018-03-01T05:09:18.921Z,78.24
2018-03-01T05:10:26.080Z,78.25
2018-03-01T05:11:33.158Z,78.57
2018-03-01T05:12:41.964Z,78.47
2018-03-01T05:13:49.847Z,78.80
2018-03-01T05:14:57.720Z,78.85
2018-03-01T05:16:05.161Z,78.60
2018-03-01T05:17:12.937Z,78.81
2018-03-01T05:18:20.411Z,78.82
2018-03-01T05:19:27.909Z,79.07
2018-03-01T05:20:35.717Z,78.92
2018-03-01T05:21:41.917Z,78.70
2018-03-01T05:22:48.199Z,79.06
2018-03-01T05:23:54.443Z,79.03
2018-03-01T05:25:00.637Z,78.99
2018-03-01T05:26:06.874Z,78.96
2018-03-01T05:27:13.010Z,78.63
2018-03-01T05:28:18.959Z,78.74
2018-03-01T05:29:25.184Z,78.96
2018-03-01T05:30:31.365Z,78.89
2018-03-01T05:31:37.628Z,79.12
2018-03-01T05:32:43.834Z,79.30
2018-03-01T05:33:49.984Z,79.35
2018-03-01T05:34:55.763Z,79.10
2018-03-01T05:36:01.927Z,78.93
2018-03-01T05:37:08.969Z,79.27
2018-03-01T05:38:15.146Z,79.41
2018-03-01T05:39:21.294Z,79.30
2018-03-01T05:40:27.632Z,79.31
2018-03-01T05:41:35.761Z,79.34
2018-03-01T05:42:41.991Z,79.32
2018-03-01T05:43:48.169Z,79.15
2018-03-01T05:44:54.384Z,79.06
2018-03-01T05:46:00.542Z,79.17
2018-03-01T05:47:06.800Z,79.53
2018-03-01T05:48:12.939Z,79.79
2018-03-01T05:49:19.089Z,79.84
2018-03-01T05:50:25.270Z,79.61
2018-03-01T05:51:31.467Z,79.85
2018-03-01T05:52:37.674Z,79.74
2018-03-01T05:53:43.602Z,79.96
2018-03-01T05:54:49.764Z,79.90
2018-03-01T05:55:55.584Z,79.84
2018-03-01T05:57:02.022Z,79.91
2018-03-01T05:58:08.212Z,79.59
2018-03-01T05:59:14.413Z,79.57
2018-03-01T06:00:20.606Z,79.87
2018-03-01T06:01:26.765Z,79.72
2018-03-01T06:02:32.979Z,79.73
2018-03-01T06:03:39.128Z,79.91
2018-03-01T06:04:45.265Z,79.77
2018-03-01T06:05:51.460Z,79.66
2018-03-01T06:06:57.632Z,79.64
2018-03-01T06:08:03.764Z,79.83
2018-03-01T06:09:09.951Z,79.58
2018-03-01T06:10:16.120Z,79.59
2018-03-01T06:11:22.280Z,79.54
2018-03-01T06:12:33.484Z,79.42
2018-03-01T06:13:39.670Z,80.03
2018-03-01T06:14:45.801Z,80.33
2018-03-01T06:15:51.923Z,80.10
2018-03-01T06:16:58.422Z,80.08
2018-03-01T06:18:04.583Z,80.02
2018-03-01T06:19:10.759Z,79.64
2018-03-01T06:20:16.900Z,79.40
2018-03-01T06:21:23.063Z,79.51
2018-03-01T06:22:29.269Z,79.32
2018-03-01T06:23:35.716Z,79.45
2018-03-01T06:24:41.937Z,79.41
2018-03-01T06:25:53.124Z,79.65
2018-03-01T06:26:59.302Z,79.92
2018-03-01T06:28:05.521Z,79.95
2018-03-01T06:29:11.395Z,79.81
2018-03-01T06:30:17.602Z,79.97
2018-03-01T06:31:23.757Z,79.82
2018-03-01T06:32:29.912Z,79.75
2018-03-01T06:33:36.129Z,79.81
2018-03-01T06:34:42.319Z,79.71
2018-03-01T06:35:48.472Z,79.52
2018-03-01T06:36:54.677Z,79.94
2018-03-01T06:38:03.681Z,79.87
2018-03-01T06:39:09.813Z,79.59
2018-03-01T06:40:15.936Z,79.25
2018-03-01T06:41:22.127Z,79.33
2018-03-01T06:42:28.263Z,79.14
2018-03-01T06:43:35.439Z,78.66
2018-03-01T06:44:41.596Z,78.40
2018-03-01T06:45:47.754Z,78.46
2018-03-01T06:46:53.683Z,78.76
2018-03-01T06:47:59.971Z,79.25
2018-03-01T06:49:06.281Z,79.31
2018-03-01T06:50:12.700Z,79.11
2018-03-01T06:51:18.928Z,79.02
2018-03-01T06:52:25.120Z,79.01
2018-03-01T06:53:31.302Z,79.05
2018-03-01T06:54:37.504Z,78.92
2018-03-01T06:55:43.691Z,78.63
2018-03-01T06:56:49.882Z,78.84
2018-03-01T06:57:56.013Z,78.74
2018-03-01T06:59:02.274Z,78.61
2018-03-01T07:00:08.778Z,78.12
2018-03-01T07:01:14.942Z,78.15
2018-03-01T07:02:21.145Z,78.64
2018-03-01T07:03:27.312Z,79.07
2018-03-01T07:04:33.471Z,78.77
2018-03-01T07:05:39.680Z,78.34
2018-03-01T07:06:45.836Z,78.55
2018-03-01T07:07:52.040Z,78.49
2018-03-01T07:08:58.173Z,78.15
2018-03-01T07:10:04.058Z,78.27
2018-03-01T07:11:10.382Z,78.15
2018-03-01T07:12:16.742Z,77.85
2018-03-01T07:13:23.392Z,77.51
2018-03-01T07:14:29.522Z,77.28
2018-03-01T07:15:35.855Z,77.20
2018-03-01T07:16:47.258Z,77.72
2018-03-01T07:17:53.458Z,77.58
2018-03-01T07:18:59.335Z,77.52
2018-03-01T07:20:04.800Z,77.75
2018-03-01T07:21:10.705Z,77.82
2018-03-01T07:22:16.814Z,77.48
2018-03-01T07:23:32.269Z,77.29
2018-03-01T07:24:38.453Z,76.91
2018-03-01T07:25:44.612Z,76.86
2018-03-01T07:26:52.548Z,76.71
2018-03-01T07:27:58.618Z,76.46
2018-03-01T07:29:04.801Z,76.60
2018-03-01T07:30:10.756Z,76.49
2018-03-01T07:31:16.903Z,76.14
2018-03-01T07:32:26.969Z,76.15
2018-03-01T07:33:33.119Z,76.11
2018-03-01T07:34:39.320Z,75.76
2018-03-01T07:35:45.509Z,76.30
2018-03-01T07:36:51.721Z,76.55
2018-03-01T07:37:57.871Z,76.00
2018-03-01T07:39:03.520Z,75.90
2018-03-01T07:40:09.882Z,76.14
2018-03-01T07:41:16.072Z,76.28
2018-03-01T07:42:22.280Z,76.24
2018-03-01T07:43:28.455Z,75.84
2018-03-01T07:44:34.570Z,75.80
2018-03-01T07:45:40.755Z,75.24
2018-03-01T07:46:46.983Z,75.32
2018-03-01T07:47:53.143Z,75.37
2018-03-01T07:48:59.288Z,75.26
2018-03-01T07:50:05.701Z,74.85
2018-03-01T07:51:11.833Z,74.64
2018-03-01T07:52:18.050Z,74.34
2018-03-01T07:53:24.191Z,73.87
2018-03-01T07:54:30.356Z,73.82
2018-03-01T07:55:36.585Z,73.86
2018-03-01T07:56:43.256Z,74.00
2018-03-01T07:57:49.465Z,74.04
2018-03-01T07:58:55.724Z,73.76
2018-03-01T08:00:01.906Z,73.73
2018-03-01T08:01:08.148Z,73.88
2018-03-01T08:02:14.336Z,74.25
2018-03-01T08:03:20.520Z,74.06
2018-03-01T08:04:26.702Z,73.73
2018-03-01T08:05:32.860Z,73.41
2018-03-01T08:06:39.058Z,72.67
2018-03-01T08:07:45.196Z,72.58
2018-03-01T08:08:51.209Z,72.86
2018-03-01T08:09:57.387Z,73.03
2018-03-01T08:11:03.538Z,72.91
2018-03-01T08:12:09.731Z,72.78
2018-03-01T08:13:15.905Z,72.63
2018-03-01T08:14:22.119Z,72.17
2018-03-01T08:15:28.283Z,72.46
2018-03-01T08:16:34.446Z,72.27
2018-03-01T08:17:40.630Z,72.28
2018-03-01T08:18:46.763Z,71.99
2018-03-01T08:19:52.915Z,71.86
2018-03-01T08:20:59.098Z,71.34
2018-03-01T08:22:05.301Z,71.12
2018-03-01T08:23:11.503Z,71.11
2018-03-01T08:24:17.734Z,71.37
2018-03-01T08:25:23.971Z,71.12
2018-03-01T08:26:30.327Z,70.75
2018-03-01T08:27:36.458Z,70.60
2018-03-01T08:28:42.609Z,70.19
2018-03-01T08:29:48.894Z,70.43
2018-03-01T08:30:55.089Z,70.08
2018-03-01T08:32:01.277Z,70.31
2018-03-01T08:33:07.461Z,70.24
2018-03-01T08:34:15.873Z,69.86
2018-03-01T08:35:22.056Z,69.42
2018-03-01T08:36:28.233Z,69.28
2018-03-01T08:37:34.420Z,69.03
2018-03-01T08:38:40.704Z,69.18
2018-03-01T08:39:46.712Z,69.87
2018-03-01T08:40:52.928Z,70.09
2018-03-01T08:41:59.126Z,69.61
2018-03-01T08:43:04.922Z,69.67
2018-03-01T08:44:11.146Z,69.71
2018-03-01T08:45:17.409Z,69.64
2018-03-01T08:46:23.543Z,69.12
2018-03-01T08:47:29.772Z,68.77
2018-03-01T08:48:35.949Z,68.54
2018-03-01T08:49:42.134Z,68.24
2018-03-01T08:50:48.294Z,67.78
2018-03-01T08:51:54.456Z,67.72
2018-03-01T08:53:00.565Z,67.63
2018-03-01T08:54:06.741Z,67.78
2018-03-01T08:55:12.956Z,68.16
2018-03-01T08:56:19.148Z,67.96
2018-03-01T08:57:25.302Z,67.60
2018-03-01T08:58:31.435Z,67.20
2018-03-01T08:59:37.153Z,67.13
2018-03-01T09:00:43.342Z,67.01
2018-03-01T09:01:49.515Z,67.04
2018-03-01T09:02:55.678Z,67.21
2018-03-01T09:04:01.824Z,67.08
2018-03-01T09:05:08.119Z,66.73
2018-03-01T09:06:14.253Z,66.66
2018-03-01T09:07:20.392Z,66.30
2018-03-01T09:08:26.552Z,65.88
2018-03-01T09:09:32.696Z,65.64
2018-03-01T09:10:38.850Z,64.92
2018-03-01T09:11:45.020Z,65.30
2018-03-01T09:12:51.176Z,65.37
2018-03-01T09:13:57.382Z,65.38
2018-03-01T09:15:03.601Z,65.53
2018-03-01T09:16:09.797Z,65.01
2018-03-01T09:17:15.968Z,64.21
2018-03-01T09:18:22.202Z,64.60
2018-03-01T09:19:28.435Z,64.75
2018-03-01T09:20:34.552Z,65.05
2018-03-01T09:21:40.722Z,64.57
2018-03-01T09:22:46.880Z,64.57
2018-03-01T09:23:53.072Z,63.88
2018-03-01T09:24:59.253Z,63.84
2018-03-01T09:26:08.265Z,63.75
2018-03-01T09:27:14.417Z,64.13
2018-03-01T09:28:20.588Z,63.99
2018-03-01T09:29:26.751Z,63.59
2018-03-01T09:30:32.996Z,63.30
2018-03-01T09:31:39.433Z,63.40
2018-03-01T09:32:45.582Z,63.09
2018-03-01T09:33:51.808Z,62.21
2018-03-01T09:34:58.030Z,62.57
2018-03-01T09:36:04.208Z,62.59
2018-03-01T09:37:10.460Z,62.33
2018-03-01T09:38:16.866Z,62.12
2018-03-01T09:39:23.195Z,61.62
2018-03-01T09:40:29.374Z,61.27
2018-03-01T09:41:35.568Z,61.90
2018-03-01T09:42:41.712Z,62.07
2018-03-01T09:43:47.921Z,61.99
2018-03-01T09:44:54.104Z,61.35
2018-03-01T09:46:00.281Z,61.43
2018-03-01T09:47:06.617Z,61.13
2018-03-01T09:48:13.036Z,61.44
2018-03-01T09:49:19.205Z,61.47
2018-03-01T09:50:25.398Z,60.84
2018-03-01T09:51:31.564Z,60.40
2018-03-01T09:52:37.780Z,60.25
2018-03-01T09:53:43.984Z,60.70
2018-03-01T09:54:50.154Z,60.48
2018-03-01T09:55:56.384Z,60.50
2018-03-01T09:57:02.597Z,60.09
2018-03-01T09:58:08.606Z,60.00
2018-03-01T09:59:14.793Z,59.71
2018-03-01T10:00:20.949Z,59.54
2018-03-01T10:01:27.173Z,59.61
2018-03-01T10:02:33.372Z,59.49
2018-03-01T10:03:39.565Z,59.28
2018-03-01T10:04:45.721Z,58.80
2018-03-01T10:05:51.863Z,58.80
2018-03-01T10:06:58.026Z,58.55
2018-03-01T10:08:04.192Z,58.61
2018-03-01T10:09:14.451Z,58.90
2018-03-01T10:10:20.681Z,58.77
2018-03-01T10:11:26.830Z,58.64
2018-03-01T10:12:33.021Z,58.82
2018-03-01T10:13:39.408Z,58.74
2018-03-01T10:14:45.572Z,58.38
2018-03-01T10:15:51.783Z,57.55
2018-03-01T10:16:57.629Z,57.92
2018-03-01T10:18:03.908Z,58.24
2018-03-01T10:19:10.099Z,58.20
2018-03-01T10:20:16.257Z,58.50
2018-03-01T10:21:22.434Z,58.20
2018-03-01T10:22:28.578Z,58.44
2018-03-01T10:23:34.751Z,57.92
2018-03-01T10:24:40.962Z,57.88
2018-03-01T10:25:47.143Z,57.92
2018-03-01T10:26:53.351Z,57.29
2018-03-01T10:27:59.785Z,57.44
2018-03-01T10:29:05.948Z,57.47
2018-03-01T10:30:12.108Z,57.39
2018-03-01T10:31:18.389Z,57.05
2018-03-01T10:32:24.589Z,57.15
2018-03-01T10:33:35.785Z,57.28
2018-03-01T10:34:41.633Z,56.81
2018-03-01T10:35:47.833Z,56.61
2018-03-01T10:36:53.963Z,57.15
2018-03-01T10:38:00.273Z,56.85
2018-03-01T10:39:05.784Z,56.80
2018-03-01T10:40:11.970Z,56.42
2018-03-01T10:41:18.113Z,56.27
2018-03-01T10:42:24.248Z,56.42
2018-03-01T10:43:30.409Z,56.51
2018-03-01T10:44:36.603Z,56.36
2018-03-01T10:45:42.777Z,56.65
2018-03-01T10:46:48.965Z,56.36
2018-03-01T10:47:55.183Z,55.86
2018-03-01T10:49:01.372Z,55.85
2018-03-01T10:50:07.566Z,55.86
2018-03-01T10:51:13.702Z,56.16
2018-03-01T10:52:19.893Z,55.89
2018-03-01T10:53:26.073Z,55.64
2018-03-01T10:54:33.583Z,55.52
2018-03-01T10:55:39.757Z,55.64
2018-03-01T10:56:45.600Z,55.78
2018-03-01T10:57:51.747Z,55.74
2018-03-01T10:58:57.909Z,55.49
2018-03-01T11:00:03.758Z,55.37
2018-03-01T11:01:15.157Z,55.42
2018-03-01T11:02:21.350Z,55.15
2018-03-01T11:03:27.493Z,55.13
2018-03-01T11:04:33.626Z,55.71
2018-03-01T11:05:39.760Z,55.46
2018-03-01T11:06:45.990Z,55.09
2018-03-01T11:07:52.180Z,54.78
2018-03-01T11:08:58.393Z,54.79
2018-03-01T11:10:04.386Z,54.77
2018-03-01T11:11:10.431Z,54.80
2018-03-01T11:12:17.216Z,54.09
2018-03-01T11:13:23.250Z,53.86
2018-03-01T11:14:29.983Z,53.21
2018-03-01T11:15:36.173Z,53.49
2018-03-01T11:16:42.363Z,52.90
2018-03-01T11:17:48.658Z,53.19
2018-03-01T11:18:54.647Z,53.38
2018-03-01T11:20:00.620Z,53.43
2018-03-01T11:21:06.586Z,52.89
2018-03-01T11:22:12.769Z,52.07
2018-03-01T11:23:18.708Z,52.31
2018-03-01T11:24:24.934Z,52.17
2018-03-01T11:25:31.143Z,52.13
2018-03-01T11:26:37.355Z,52.13
2018-03-01T11:27:43.555Z,51.92
2018-03-01T11:28:49.769Z,51.63
2018-03-01T11:29:55.983Z,51.55
2018-03-01T11:31:02.119Z,51.47
2018-03-01T11:32:08.320Z,51.87
2018-03-01T11:33:14.533Z,51.92
2018-03-01T11:34:20.735Z,51.94
2018-03-01T11:35:26.928Z,51.85
2018-03-01T11:36:33.112Z,51.97
2018-03-01T11:37:41.156Z,52.17
2018-03-01T11:38:47.372Z,51.42
2018-03-01T11:39:53.426Z,51.32
2018-03-01T11:40:59.598Z,51.14
2018-03-01T11:42:05.802Z,50.49
2018-03-01T11:43:12.049Z,50.15
2018-03-01T11:44:18.327Z,50.12
2018-03-01T11:45:24.561Z,50.28
2018-03-01T11:46:30.831Z,50.46
2018-03-01T11:47:37.068Z,50.24
2018-03-01T11:48:43.266Z,49.82
2018-03-01T11:49:49.460Z,50.12
2018-03-01T11:50:55.606Z,50.71
2018-03-01T11:52:01.800Z,50.64
2018-03-01T11:53:08.021Z,50.53
2018-03-01T11:54:19.019Z,50.20
2018-03-01T11:55:25.197Z,50.64
2018-03-01T11:56:31.389Z,50.72
2018-03-01T11:57:37.585Z,50.81
2018-03-01T11:58:43.769Z,50.70
2018-03-01T11:59:50.024Z,50.00
2018-03-01T12:00:56.238Z,49.81
2018-03-01T12:02:02.463Z,49.44
2018-03-01T12:03:08.738Z,49.63
2018-03-01T12:04:14.941Z,49.50
2018-03-01T12:05:21.146Z,49.84
2018-03-01T12:06:27.552Z,49.80
2018-03-01T12:07:33.771Z,49.96
2018-03-01T12:08:40.133Z,49.86
2018-03-01T12:09:46.399Z,49.59
2018-03-01T12:10:52.698Z,49.55
2018-03-01T12:11:58.838Z,49.90
2018-03-01T12:13:05.038Z,50.07
2018-03-01T12:14:11.231Z,49.63
2018-03-01T12:15:17.557Z,49.33
2018-03-01T12:16:23.721Z,49.28
2018-03-01T12:17:29.952Z,49.38
2018-03-01T12:18:36.129Z,49.14
2018-03-01T12:19:42.448Z,48.91
2018-03-01T12:20:48.722Z,48.85
2018-03-01T12:21:54.974Z,48.73
2018-03-01T12:23:01.211Z,48.53
2018-03-01T12:24:07.387Z,48.36
2018-03-01T12:25:13.584Z,48.49
2018-03-01T12:26:19.741Z,48.64
2018-03-01T12:27:26.040Z,48.91
2018-03-01T12:28:32.224Z,48.85
2018-03-01T12:29:38.467Z,49.12
2018-03-01T12:30:44.698Z,48.71
2018-03-01T12:31:50.916Z,48.80
2018-03-01T12:32:57.152Z,49.03
2018-03-01T12:34:03.404Z,48.60
2018-03-01T12:35:09.211Z,48.54
2018-03-01T12:36:15.413Z,48.75
2018-03-01T12:37:21.661Z,48.56
2018-03-01T12:38:27.857Z,48.30
2018-03-01T12:39:34.044Z,48.00
2018-03-01T12:40:40.252Z,48.47
2018-03-01T12:41:46.410Z,48.80
2018-03-01T12:42:52.645Z,48.20
2018-03-01T12:43:58.855Z,47.71
2018-03-01T12:45:05.117Z,47.56
2018-03-01T12:46:11.440Z,48.00
2018-03-01T12:47:17.744Z,47.89
2018-03-01T12:48:24.002Z,48.17
2018-03-01T12:49:30.031Z,48.12
2018-03-01T12:50:36.013Z,47.91
2018-03-01T12:51:42.066Z,47.90
2018-03-01T12:52:48.344Z,47.86
2018-03-01T12:53:54.385Z,48.01
2018-03-01T12:55:00.414Z,47.67
2018-03-01T12:56:06.408Z,47.41
2018-03-01T12:57:12.451Z,47.33
2018-03-01T12:58:19.372Z,47.35
2018-03-01T12:59:25.482Z,46.92
2018-03-01T13:00:31.758Z,47.19
2018-03-01T13:01:37.848Z,47.50
2018-03-01T13:02:43.950Z,47.46
2018-03-01T13:03:49.934Z,47.69
2018-03-01T13:04:55.977Z,47.65
2018-03-01T13:06:02.022Z,47.66
2018-03-01T13:07:08.088Z,47.27
2018-03-01T13:08:14.113Z,47.13
2018-03-01T13:09:20.115Z,47.52
2018-03-01T13:10:26.624Z,47.53
2018-03-01T13:11:32.868Z,47.46
2018-03-01T13:12:38.900Z,47.19
2018-03-01T13:13:44.920Z,47.04
2018-03-01T13:14:51.012Z,46.97
2018-03-01T13:15:57.064Z,46.83
2018-03-01T13:17:03.045Z,47.08
2018-03-01T13:18:09.161Z,46.92
2018-03-01T13:19:15.212Z,46.78
2018-03-01T13:20:21.340Z,46.57
2018-03-01T13:21:27.347Z,46.39
2018-03-01T13:22:33.368Z,46.32
2018-03-01T13:23:40.304Z,46.35
2018-03-01T13:24:46.356Z,46.55
2018-03-01T13:25:52.458Z,46.88
2018-03-01T13:26:58.550Z,47.02
2018-03-01T13:28:04.586Z,47.43
2018-03-01T13:29:10.592Z,47.50
2018-03-01T13:30:21.225Z,47.12
2018-03-01T13:31:27.613Z,46.76
2018-03-01T13:32:37.150Z,47.00
2018-03-01T13:33:48.874Z,46.87
2018-03-01T13:35:00.475Z,46.72
2018-03-01T13:36:06.362Z,46.56
2018-03-01T13:37:12.444Z,45.62
2018-03-01T13:38:20.070Z,45.63
2018-03-01T13:39:26.046Z,45.99
2018-03-01T13:40:32.078Z,46.01
2018-03-01T13:41:38.075Z,46.35
2018-03-01T13:42:44.077Z,46.11
2018-03-01T13:43:50.170Z,46.27
2018-03-01T13:44:56.189Z,46.31
2018-03-01T13:46:02.640Z,46.10
2018-03-01T13:47:08.662Z,46.48
2018-03-01T13:48:14.733Z,46.61
2018-03-01T13:49:22.614Z,45.95
2018-03-01T13:50:28.656Z,45.95
2018-03-01T13:51:34.676Z,45.91
2018-03-01T13:52:40.741Z,46.11
2018-03-01T13:53:46.791Z,45.89
2018-03-01T13:54:52.801Z,45.72
2018-03-01T13:55:58.908Z,46.04
2018-03-01T13:57:05.246Z,45.96
2018-03-01T13:58:11.511Z,45.92
2018-03-01T13:59:17.574Z,45.88
2018-03-01T14:00:23.850Z,45.79
2018-03-01T14:01:30.336Z,45.60
2018-03-01T14:02:36.901Z,45.80
2018-03-01T14:03:42.981Z,46.14
2018-03-01T14:04:49.046Z,46.11
2018-03-01T14:17:58.545Z,46.16
2018-03-01T14:20:44.418Z,45.64
2018-03-01T14:21:57.085Z,45.91
2018-03-01T14:23:18.852Z,46.05
2018-03-01T14:24:43.865Z,46.10
2018-03-01T14:48:25.524Z,46.63
2018-03-01T14:49:31.701Z,46.47
2018-03-01T14:50:37.979Z,46.76
2018-03-01T14:51:44.242Z,46.68